Time;durP1;ratioP1;P1;durP2;ratioP2;P2;SDS_P1;SDS_P2;PMS_P1;PMS_P2;Temp;Humidity;BMP_temperature;BMP_pressure;BME280_temperature;BME280_humidity;BME280_pressure;Samples;Min_cycle;Max_cycle;Signal;HPM_P1;HPM_P2
2024/03/24 00:01:07;;;;;;;7.55;1.58;;;6.20;99.90;;;5.42;100.00;101435.56;4102852;29;20062;-70
2024/03/24 00:03:08;;;;;;;14.65;2.85;;;6.20;99.90;;;5.44;100.00;101428.44;4102692;29;20114;-71
2024/03/24 00:05:09;;;;;;;13.68;2.08;;;6.20;99.90;;;5.40;100.00;101419.97;4103962;28;20054;-71
2024/03/24 00:07:09;;;;;;;7.10;1.70;;;6.20;99.90;;;5.37;100.00;101421.97;4103860;29;20023;-71
2024/03/24 00:09:10;;;;;;;9.38;2.25;;;6.20;99.90;;;5.28;100.00;101415.59;4102840;29;20031;-71
2024/03/24 00:11:11;;;;;;;8.57;1.98;;;6.10;99.90;;;5.29;100.00;101425.09;4103916;28;20027;-71
2024/03/24 00:13:12;;;;;;;10.45;1.98;;;6.10;99.90;;;5.23;100.00;101411.59;4103941;29;20031;-71
2024/03/24 00:15:13;;;;;;;4.93;1.80;;;6.10;99.90;;;5.19;100.00;101411.00;4102760;29;20031;-71
2024/03/24 00:17:14;;;;;;;6.95;2.05;;;6.00;99.90;;;5.15;100.00;101416.53;4102762;29;20133;-71
2024/03/24 00:19:15;;;;;;;6.60;1.40;;;6.00;99.90;;;5.11;100.00;101415.88;4102728;29;20400;-71
2024/03/24 00:21:15;;;;;;;7.93;1.88;;;5.90;99.90;;;5.04;100.00;101409.41;4102611;28;20023;-71
2024/03/24 00:23:16;;;;;;;11.30;2.58;;;5.90;99.90;;;5.15;100.00;101422.59;4094102;28;20409;-71
2024/03/24 00:25:17;;;;;;;9.52;1.65;;;5.90;99.90;;;5.11;100.00;101413.28;4103866;29;20038;-70
2024/03/24 00:27:18;;;;;;;11.57;1.95;;;5.90;99.90;;;5.12;100.00;101416.72;4103837;29;20035;-71
2024/03/24 00:29:19;;;;;;;9.50;2.72;;;5.90;99.90;;;5.11;100.00;101408.03;4103985;29;20392;-70
2024/03/24 00:31:20;;;;;;;6.38;1.60;;;5.90;99.90;;;5.09;100.00;101411.72;4101900;29;20027;-70
2024/03/24 00:33:21;;;;;;;7.75;1.40;;;5.90;99.90;;;5.12;100.00;101412.34;4101658;29;20415;-69
2024/03/24 00:35:22;;;;;;;12.00;1.90;;;5.90;99.90;;;5.15;100.00;101411.28;4102031;29;20039;-69
2024/03/24 00:37:23;;;;;;;11.57;3.30;;;6.00;99.90;;;5.20;100.00;101409.19;4101674;28;20035;-69
2024/03/24 00:39:24;;;;;;;4.97;1.63;;;6.00;99.90;;;5.26;100.00;101412.22;4101803;29;20024;-69
2024/03/24 00:41:25;;;;;;;6.68;1.45;;;6.10;99.90;;;5.30;100.00;101411.09;4103054;29;20055;-70
2024/03/24 00:43:25;;;;;;;11.80;2.15;;;6.10;99.90;;;5.33;100.00;101410.88;4102067;29;20027;-70
2024/03/24 00:45:26;;;;;;;9.02;1.90;;;6.10;99.90;;;5.41;100.00;101419.00;4099698;29;20042;-70
2024/03/24 00:47:28;;;;;;;8.82;2.70;;;6.20;99.90;;;5.45;100.00;101407.41;4103167;29;20035;-71
2024/03/24 00:49:29;;;;;;;6.43;1.65;;;6.20;99.90;;;5.49;100.00;101424.56;4101713;29;20510;-70
2024/03/24 00:51:30;;;;;;;8.40;1.85;;;6.30;99.90;;;5.57;100.00;101417.03;4102860;28;20039;-71
2024/03/24 00:53:31;;;;;;;10.98;2.10;;;6.30;99.90;;;5.61;100.00;101422.03;4103410;28;20027;-70
2024/03/24 00:55:32;;;;;;;9.23;1.80;;;6.40;99.90;;;5.66;100.00;101415.53;4101550;28;20038;-71
2024/03/24 00:57:32;;;;;;;9.77;1.58;;;6.40;99.90;;;5.68;100.00;101415.41;4118190;28;20039;-70
2024/03/24 00:59:34;;;;;;;9.13;1.50;;;6.40;99.90;;;5.66;100.00;101412.06;4103684;28;20027;-70
2024/03/24 01:01:34;;;;;;;16.02;2.15;;;6.40;99.90;;;5.67;100.00;101422.44;4102723;29;20028;-71
2024/03/24 01:03:35;;;;;;;7.70;1.77;;;6.40;99.90;;;5.66;100.00;101410.28;4103841;28;20061;-71
2024/03/24 01:05:37;;;;;;;12.73;2.10;;;6.50;99.90;;;5.63;100.00;101409.66;4103236;29;20042;-71
2024/03/24 01:07:38;;;;;;;9.40;2.00;;;6.40;99.90;;;5.69;100.00;101412.69;4098937;29;20067;-71
2024/03/24 01:09:39;;;;;;;9.23;1.75;;;6.50;99.90;;;5.72;100.00;101419.50;4103530;29;20034;-71
2024/03/24 01:11:40;;;;;;;6.63;1.60;;;6.50;99.90;;;5.75;100.00;101414.03;4103643;29;20117;-71
2024/03/24 01:13:41;;;;;;;9.07;1.65;;;6.50;99.90;;;5.73;100.00;101413.31;4102343;29;20031;-71
2024/03/24 01:15:46;;;;;;;8.52;2.38;;;6.50;99.90;;;5.69;100.00;101406.63;4104172;28;20028;-71
2024/03/24 01:17:47;;;;;;;14.45;1.55;;;6.50;99.90;;;5.75;100.00;101395.72;4106310;29;20055;-71
2024/03/24 01:19:48;;;;;;;8.98;2.35;;;6.50;99.90;;;5.80;100.00;101404.06;4105367;29;20038;-71
2024/03/24 01:21:49;;;;;;;10.82;2.05;;;6.60;99.90;;;5.84;100.00;101397.69;4106140;28;20121;-71
2024/03/24 01:23:50;;;;;;;8.60;1.50;;;6.60;99.90;;;5.81;100.00;101400.50;4105139;29;20031;-71
2024/03/24 01:25:51;;;;;;;12.80;2.47;;;6.60;99.90;;;5.76;100.00;101397.41;4121006;28;20023;-71
2024/03/24 01:27:52;;;;;;;10.35;2.47;;;6.60;99.90;;;5.72;100.00;101390.69;4105202;29;20380;-71
2024/03/24 01:29:53;;;;;;;6.93;1.48;;;6.50;99.90;;;5.66;100.00;101391.13;4105162;29;20427;-71
2024/03/24 01:31:54;;;;;;;10.90;2.78;;;6.50;99.90;;;5.53;100.00;101381.53;4106078;29;20407;-71
2024/03/24 01:33:55;;;;;;;8.10;1.73;;;6.40;99.90;;;5.47;100.00;101374.09;4106054;28;20023;-71
2024/03/24 01:35:55;;;;;;;12.13;2.20;;;6.30;99.90;;;5.39;100.00;101373.81;4120890;28;20037;-71
2024/03/24 01:37:56;;;;;;;13.18;2.30;;;6.30;99.90;;;5.30;100.00;101373.63;4106280;28;20028;-71
2024/03/24 01:39:57;;;;;;;8.48;2.17;;;6.20;99.90;;;5.28;100.00;101378.97;4106157;29;20031;-71
2024/03/24 01:41:58;;;;;;;10.70;1.88;;;6.10;99.90;;;5.27;100.00;101371.22;4106009;29;20026;-71
2024/03/24 01:43:59;;;;;;;7.90;2.28;;;6.10;99.90;;;5.18;100.00;101375.31;4104909;29;20403;-71
2024/03/24 01:46:00;;;;;;;7.57;2.58;;;6.00;99.90;;;5.12;100.00;101370.50;4106088;29;20027;-71
2024/03/24 01:48:01;;;;;;;8.43;2.10;;;6.00;99.90;;;5.11;100.00;101368.00;4104846;29;20039;-71
2024/03/24 01:50:04;;;;;;;10.75;2.42;;;6.00;99.90;;;5.07;100.00;101383.06;4105929;29;20031;-71
2024/03/24 01:52:08;;;;;;;10.55;2.08;;;5.90;99.90;;;5.03;100.00;101378.97;4104677;29;20538;-71
2024/03/24 01:54:11;;;;;;;12.05;2.30;;;5.90;99.90;;;4.98;100.00;101375.84;4105804;29;20027;-71
2024/03/24 01:56:12;;;;;;;9.88;2.42;;;5.80;99.90;;;4.97;100.00;101374.16;4120683;28;20058;-71
2024/03/24 01:58:13;;;;;;;9.90;1.75;;;5.80;99.90;;;4.95;100.00;101383.91;4104481;29;20083;-71
2024/03/24 02:00:15;;;;;;;9.52;2.30;;;5.80;99.90;;;4.91;100.00;101382.44;4104701;29;20042;-72
2024/03/24 02:02:16;;;;;;;9.75;2.33;;;5.70;99.90;;;4.87;100.00;101380.94;4104736;29;20023;-71
2024/03/24 02:04:16;;;;;;;10.10;2.40;;;5.70;99.90;;;4.87;100.00;101387.03;4104727;29;20041;-71
2024/03/24 02:06:17;;;;;;;11.18;2.53;;;5.70;99.90;;;4.88;100.00;101372.19;4105403;28;20554;-71
2024/03/24 02:08:18;;;;;;;9.70;2.40;;;5.70;99.90;;;4.85;100.00;101378.47;4104562;29;20495;-71
2024/03/24 02:10:20;;;;;;;15.23;2.13;;;5.70;99.90;;;4.92;100.00;101382.34;4104697;29;20035;-71
2024/03/24 02:12:21;;;;;;;7.30;1.75;;;5.80;99.90;;;5.00;100.00;101376.56;4105651;28;20047;-71
2024/03/24 02:14:22;;;;;;;8.50;2.65;;;5.80;99.90;;;5.11;100.00;101379.28;4105306;28;20023;-71
2024/03/24 02:16:23;;;;;;;15.15;1.75;;;5.90;99.90;;;5.17;100.00;101380.66;4104435;29;20027;-71
2024/03/24 02:18:24;;;;;;;7.43;2.35;;;5.90;99.90;;;5.25;100.00;101375.72;4105629;28;20106;-70
2024/03/24 02:20:25;;;;;;;7.22;2.05;;;6.00;99.90;;;5.28;100.00;101370.28;4105377;29;20031;-71
2024/03/24 02:22:25;;;;;;;10.38;3.28;;;6.10;99.90;;;5.35;100.00;101380.19;4104267;28;20023;-71
2024/03/24 02:24:26;;;;;;;10.27;3.20;;;6.10;99.90;;;5.38;100.00;101377.38;4104347;29;20427;-71
2024/03/24 02:26:27;;;;;;;8.95;1.90;;;6.20;99.90;;;5.45;100.00;101377.78;4120214;28;20027;-71
2024/03/24 02:28:28;;;;;;;10.15;1.67;;;6.20;99.90;;;5.44;100.00;101366.47;4104527;28;20031;-71
2024/03/24 02:30:29;;;;;;;10.35;2.25;;;6.30;99.90;;;5.54;100.00;101377.97;4105080;29;20067;-71
2024/03/24 02:32:30;;;;;;;10.57;2.05;;;6.30;99.90;;;5.56;100.00;101375.25;4104210;29;20051;-71
2024/03/24 02:34:32;;;;;;;8.02;1.85;;;6.30;99.90;;;5.61;100.00;101377.53;4104147;29;20019;-71
2024/03/24 02:36:32;;;;;;;8.32;2.20;;;6.40;99.90;;;5.62;100.00;101373.97;4104019;29;20055;-71
2024/03/24 02:38:33;;;;;;;9.40;2.13;;;6.40;99.90;;;5.62;100.00;101377.41;4105159;29;20027;-71
2024/03/24 02:40:34;;;;;;;8.15;2.30;;;6.40;99.90;;;5.68;100.00;101378.75;4091356;29;20152;-71
2024/03/24 02:42:36;;;;;;;8.38;1.70;;;6.40;99.90;;;5.72;100.00;101375.00;4105287;28;20087;-71
2024/03/24 02:44:38;;;;;;;5.80;1.70;;;6.50;99.90;;;5.77;100.00;101375.50;4105185;28;20027;-71
2024/03/24 02:46:39;;;;;;;14.10;2.17;;;6.50;99.90;;;5.78;100.00;101370.16;4120032;28;20030;-71
2024/03/24 02:48:40;;;;;;;10.95;2.03;;;6.50;99.90;;;5.78;100.00;101374.56;4103925;29;20023;-71
2024/03/24 02:50:41;;;;;;;6.05;1.88;;;6.60;99.90;;;5.83;100.00;101383.75;4103795;29;20024;-71
2024/03/24 02:52:41;;;;;;;9.70;2.10;;;6.60;99.90;;;5.87;100.00;101380.00;4105032;28;20043;-71
2024/03/24 02:54:42;;;;;;;9.18;1.02;;;6.60;99.90;;;5.81;100.00;101371.72;4103219;29;20034;-71
2024/03/24 02:56:43;;;;;;;10.55;1.70;;;6.60;99.90;;;5.88;100.00;101375.63;4104903;28;20031;-71
2024/03/24 02:58:44;;;;;;;5.53;1.60;;;6.60;99.90;;;5.88;100.00;101373.00;4104987;28;20023;-71
2024/03/24 03:00:45;;;;;;;11.73;2.47;;;6.70;99.90;;;5.88;100.00;101373.00;4105225;28;20029;-71
2024/03/24 03:02:46;;;;;;;11.25;1.98;;;6.60;99.90;;;5.84;100.00;101371.50;4103713;29;20027;-71
2024/03/24 03:04:47;;;;;;;4.93;1.85;;;6.60;99.90;;;5.78;100.00;101371.94;4104694;28;20031;-71
2024/03/24 03:06:48;;;;;;;11.88;1.88;;;6.60;99.90;;;5.70;100.00;101366.44;4104638;29;20043;-71
2024/03/24 03:08:48;;;;;;;14.05;2.97;;;6.50;99.90;;;5.63;100.00;101366.03;4105033;29;20027;-71
2024/03/24 03:10:49;;;;;;;9.07;1.77;;;6.50;99.90;;;5.51;100.00;101367.72;4104763;29;20027;-71
2024/03/24 03:12:50;;;;;;;11.40;2.75;;;6.40;99.90;;;5.42;100.00;101368.38;4104259;29;20027;-71
2024/03/24 03:14:51;;;;;;;10.85;1.73;;;6.30;99.90;;;5.32;100.00;101358.66;4103392;29;20035;-71
2024/03/24 03:16:52;;;;;;;7.13;1.55;;;6.20;99.90;;;5.22;100.00;101360.25;4104616;29;20031;-71
2024/03/24 03:18:53;;;;;;;8.02;1.58;;;6.10;99.90;;;5.24;100.00;101360.97;4104612;29;20479;-71
2024/03/24 03:20:53;;;;;;;12.57;2.08;;;6.10;99.90;;;5.22;100.00;101361.09;4104308;28;20024;-71
2024/03/24 03:22:54;;;;;;;4.50;1.80;;;6.00;99.90;;;5.15;100.00;101351.16;4104689;29;20030;-71
2024/03/24 03:24:55;;;;;;;6.82;1.73;;;6.00;99.90;;;5.10;100.00;101353.25;4104561;29;20031;-71
2024/03/24 03:26:56;;;;;;;9.02;1.90;;;5.90;99.90;;;5.01;100.00;101346.88;4119322;28;20035;-71
2024/03/24 03:28:57;;;;;;;14.10;1.80;;;5.90;99.90;;;4.97;100.00;101335.78;4104393;28;20031;-70
2024/03/24 03:30:58;;;;;;;10.77;2.45;;;5.80;99.90;;;4.94;100.00;101340.38;4104536;29;20487;-70
2024/03/24 03:32:58;;;;;;;10.13;2.13;;;5.80;99.90;;;4.86;100.00;101346.16;4104262;29;20043;-71
2024/03/24 03:34:59;;;;;;;10.10;1.67;;;5.70;99.90;;;4.83;100.00;101350.75;4103229;29;20023;-71
2024/03/24 03:37:00;;;;;;;5.53;1.17;;;5.70;99.90;;;4.77;100.00;101348.56;4103981;29;20031;-71
2024/03/24 03:39:01;;;;;;;6.25;1.52;;;5.60;99.90;;;4.76;100.00;101352.09;4103925;29;20031;-71
2024/03/24 03:41:02;;;;;;;9.15;2.03;;;5.60;99.90;;;4.74;100.00;101351.38;4104354;29;20399;-71
2024/03/24 03:43:03;;;;;;;8.38;1.73;;;5.60;99.90;;;4.69;100.00;101349.06;4103148;29;20046;-70
2024/03/24 03:45:05;;;;;;;6.65;1.95;;;5.60;99.90;;;4.70;100.00;101352.50;4104305;29;20436;-70
2024/03/24 03:47:06;;;;;;;3.97;1.40;;;5.60;99.90;;;4.81;100.00;101360.47;4104454;29;20036;-70
2024/03/24 03:49:08;;;;;;;13.98;1.90;;;5.60;99.90;;;4.85;100.00;101360.16;4103151;29;20034;-71
2024/03/24 03:51:17;;;;;;;11.18;1.70;;;5.60;99.90;;;4.89;100.00;101352.94;4104067;29;20479;-70
2024/03/24 03:53:22;;;;;;;6.43;1.85;;;5.70;99.90;;;4.98;100.00;101355.78;4104156;29;20034;-71
2024/03/24 03:55:23;;;;;;;6.97;2.00;;;5.80;99.90;;;5.11;100.00;101353.13;4103104;29;20114;-71
2024/03/24 03:57:24;;;;;;;12.30;2.40;;;5.90;99.90;;;5.19;100.00;101353.47;4104176;29;20087;-71
2024/03/24 03:59:25;;;;;;;11.55;2.15;;;6.00;99.90;;;5.31;100.00;101355.22;4104133;29;20055;-71
2024/03/24 04:01:26;;;;;;;9.88;2.33;;;6.10;99.90;;;5.38;100.00;101351.22;4104000;29;20058;-71
2024/03/24 04:03:27;;;;;;;8.40;1.90;;;6.10;99.90;;;5.48;100.00;101347.00;4104121;29;20094;-71
2024/03/24 04:05:28;;;;;;;7.03;2.10;;;6.20;99.90;;;5.63;100.00;101352.94;4103517;29;20093;-72
2024/03/24 04:07:28;;;;;;;5.00;1.58;;;6.30;99.90;;;5.65;100.00;101352.81;4104108;28;20043;-71
2024/03/24 04:09:29;;;;;;;5.93;1.17;;;6.40;99.90;;;5.69;100.00;101343.81;4103989;29;20518;-71
2024/03/24 04:11:30;;;;;;;9.30;1.75;;;6.40;99.90;;;5.73;100.00;101345.25;4103009;29;20032;-71
2024/03/24 04:13:31;;;;;;;8.05;1.70;;;6.50;99.90;;;5.84;100.00;101350.56;4102747;29;20038;-71
2024/03/24 04:15:32;;;;;;;6.15;1.95;;;6.50;99.90;;;5.80;100.00;101339.47;4103986;28;20035;-71
2024/03/24 04:17:33;;;;;;;11.90;3.13;;;6.60;99.90;;;5.87;100.00;101348.59;4118702;28;20027;-71
2024/03/24 04:19:34;;;;;;;9.40;1.30;;;6.60;99.90;;;5.83;100.00;101351.50;4102955;29;20067;-71
2024/03/24 04:21:34;;;;;;;7.03;2.17;;;6.60;99.90;;;5.82;100.00;101352.47;4118200;28;20034;-71
2024/03/24 04:23:35;;;;;;;8.13;1.58;;;6.60;99.90;;;5.74;100.00;101353.00;4104103;28;20032;-71
2024/03/24 04:25:36;;;;;;;10.93;1.70;;;6.60;99.90;;;5.77;100.00;101355.38;4102615;29;20031;-71
2024/03/24 04:27:37;;;;;;;7.05;1.33;;;6.50;99.90;;;5.78;100.00;101351.84;4102790;29;20557;-71
2024/03/24 04:29:38;;;;;;;7.43;1.35;;;6.50;99.90;;;5.81;100.00;101351.63;4103988;28;20031;-71
2024/03/24 04:31:39;;;;;;;10.65;2.35;;;6.50;99.90;;;5.75;100.00;101343.38;4103885;28;20082;-70
2024/03/24 04:33:40;;;;;;;7.10;1.98;;;6.50;99.90;;;5.71;100.00;101347.13;4102480;29;20067;-71
2024/03/24 04:35:40;;;;;;;8.57;1.73;;;6.50;99.90;;;5.71;100.00;101350.59;4103592;28;20038;-71
2024/03/24 04:37:41;;;;;;;5.93;1.65;;;6.50;99.90;;;5.68;100.00;101357.81;4103689;29;20035;-71
2024/03/24 04:39:42;;;;;;;9.65;2.72;;;6.40;99.90;;;5.62;100.00;101351.25;4102632;29;20538;-71
2024/03/24 04:41:43;;;;;;;5.43;1.45;;;6.40;99.90;;;5.50;100.00;101352.97;4102588;29;20408;-71
2024/03/24 04:43:44;;;;;;;11.43;2.08;;;6.30;99.90;;;5.42;100.00;101342.22;4104128;28;20020;-71
2024/03/24 04:45:45;;;;;;;8.05;1.83;;;6.20;99.90;;;5.36;100.00;101352.28;4102186;29;20034;-71
2024/03/24 04:47:46;;;;;;;6.95;1.60;;;6.20;99.90;;;5.29;100.00;101346.63;4102579;29;20042;-71
2024/03/24 04:49:46;;;;;;;8.23;1.38;;;6.10;99.90;;;5.22;100.00;101347.16;4100061;28;20031;-71
2024/03/24 04:51:47;;;;;;;6.90;1.73;;;6.10;99.90;;;5.13;100.00;101351.28;4105987;29;20039;-71
2024/03/24 04:53:48;;;;;;;8.90;1.75;;;6.00;99.90;;;5.07;100.00;101340.38;4106895;29;20035;-71
2024/03/24 04:55:49;;;;;;;13.23;2.28;;;5.90;99.90;;;5.02;100.00;101343.31;4106706;29;20088;-71
2024/03/24 04:57:50;;;;;;;6.78;1.70;;;5.90;99.90;;;4.97;100.00;101337.56;4105605;29;20031;-71
2024/03/24 04:59:51;;;;;;;5.32;1.63;;;5.80;99.90;;;4.97;100.00;101345.41;4106719;28;20082;-71
2024/03/24 05:01:52;;;;;;;6.93;1.73;;;5.80;99.90;;;5.01;100.00;101339.88;4106502;29;20082;-71
2024/03/24 05:03:53;;;;;;;9.15;1.83;;;5.80;99.90;;;4.98;100.00;101331.41;4105460;29;20032;-71
2024/03/24 05:05:53;;;;;;;10.40;2.17;;;5.80;99.90;;;4.94;100.00;101329.94;4106248;28;20451;-71
2024/03/24 05:07:55;;;;;;;9.68;1.65;;;5.80;99.90;;;4.92;100.00;101329.22;4106739;28;20031;-71
2024/03/24 05:09:55;;;;;;;5.63;1.30;;;5.80;99.90;;;4.88;100.00;101325.13;4121406;28;20026;-71
2024/03/24 05:11:56;;;;;;;7.57;2.85;;;5.70;99.90;;;4.97;100.00;101324.50;4106622;28;20506;-71
2024/03/24 05:13:57;;;;;;;8.95;1.95;;;5.70;99.90;;;4.95;100.00;101334.22;4106485;29;20039;-71
2024/03/24 05:15:59;;;;;;;7.85;2.10;;;5.80;99.90;;;4.92;100.00;101331.81;4106326;29;20067;-71
2024/03/24 05:18:00;;;;;;;7.50;1.67;;;5.80;99.90;;;4.98;100.00;101339.25;4105278;29;20024;-71
2024/03/24 05:20:01;;;;;;;8.15;2.17;;;5.80;99.90;;;4.96;100.00;101344.56;4106508;28;20019;-71
2024/03/24 05:22:03;;;;;;;7.47;2.22;;;5.80;99.90;;;4.97;100.00;101350.63;4106131;28;20027;-71
2024/03/24 05:24:05;;;;;;;9.85;1.95;;;5.80;99.90;;;4.98;100.00;101342.72;4106157;28;20027;-71
2024/03/24 05:26:06;;;;;;;8.00;1.70;;;5.80;99.90;;;4.96;100.00;101343.72;4106277;29;20038;-71
2024/03/24 05:28:07;;;;;;;8.13;1.45;;;5.80;99.90;;;4.96;100.00;101341.97;4106698;29;20039;-71
2024/03/24 05:30:08;;;;;;;10.55;2.85;;;5.80;99.90;;;4.95;100.00;101342.06;4106281;29;20499;-71
2024/03/24 05:32:09;;;;;;;7.53;1.58;;;5.70;99.90;;;4.95;100.00;101348.16;4105892;29;20121;-71
2024/03/24 05:34:09;;;;;;;9.70;2.42;;;5.80;99.90;;;4.95;100.00;101352.53;4104867;29;20448;-71
2024/03/24 05:36:10;;;;;;;9.98;1.60;;;5.70;99.90;;;4.94;100.00;101348.22;4097652;29;20032;-71
2024/03/24 05:38:12;;;;;;;14.93;2.33;;;5.80;99.90;;;4.94;100.00;101351.69;4099302;29;20090;-71
2024/03/24 05:40:13;;;;;;;8.05;2.42;;;5.80;99.90;;;4.98;100.00;101354.94;4104927;29;20094;-71
2024/03/24 05:42:14;;;;;;;9.10;1.90;;;5.70;99.90;;;5.01;100.00;101352.13;4105034;29;20101;-71
2024/03/24 05:44:16;;;;;;;7.18;2.50;;;5.80;99.90;;;5.05;100.00;101353.56;4098138;29;20028;-71
2024/03/24 05:46:17;;;;;;;7.70;2.55;;;5.80;99.90;;;5.10;100.00;101353.25;4109729;28;20542;-71
2024/03/24 05:48:17;;;;;;;9.05;2.65;;;5.80;99.90;;;5.05;100.00;101356.16;4103640;29;20035;-70
2024/03/24 05:50:18;;;;;;;9.02;1.40;;;5.90;99.90;;;5.12;100.00;101359.19;4104556;29;20027;-71
2024/03/24 05:52:19;;;;;;;12.20;1.52;;;5.90;99.90;;;5.15;100.00;101359.84;4106063;28;20492;-71
2024/03/24 05:54:20;;;;;;;8.73;2.40;;;5.90;99.90;;;5.14;100.00;101357.34;4106021;28;20032;-71
2024/03/24 05:56:21;;;;;;;10.15;2.88;;;5.90;99.90;;;5.17;100.00;101357.94;4104632;29;20023;-71
2024/03/24 05:58:22;;;;;;;8.35;2.63;;;6.00;99.90;;;5.24;100.00;101366.19;4105837;28;20027;-71
2024/03/24 06:00:23;;;;;;;8.98;1.83;;;6.00;99.90;;;5.22;100.00;101366.31;4104726;29;20023;-71
2024/03/24 06:02:24;;;;;;;11.48;1.73;;;6.00;99.90;;;5.19;100.00;101365.69;4105643;28;20510;-71
2024/03/24 06:04:28;;;;;;;7.78;2.38;;;6.00;99.90;;;5.16;100.00;101360.66;4105848;29;20406;-71
2024/03/24 06:06:28;;;;;;;7.78;1.90;;;6.00;99.90;;;5.18;100.00;101369.25;4107725;28;20042;-71
2024/03/24 06:08:34;;;;;;;9.60;2.72;;;6.00;99.90;;;5.15;100.00;101361.59;4104513;28;20511;-71
2024/03/24 06:10:42;;;;;;;11.15;2.53;;;6.00;99.90;;;5.20;100.00;101365.56;4104691;29;20175;-71
2024/03/24 06:12:43;;;;;;;7.93;1.70;;;6.00;99.90;;;5.19;100.00;101363.91;4104513;29;20531;-71
2024/03/24 06:14:43;;;;;;;11.95;1.63;;;6.00;99.90;;;5.22;100.00;101370.72;4105556;28;20035;-71
2024/03/24 06:16:44;;;;;;;10.15;2.72;;;6.00;99.90;;;5.25;100.00;101368.72;4105542;28;20059;-71
2024/03/24 06:18:45;;;;;;;8.57;2.28;;;6.00;99.90;;;5.25;100.00;101363.50;4105577;29;20035;-71
2024/03/24 06:20:46;;;;;;;11.90;2.15;;;6.00;99.90;;;5.33;100.00;101369.03;4104084;28;20015;-71
2024/03/24 06:22:47;;;;;;;7.65;1.58;;;6.10;99.90;;;5.34;100.00;101381.16;4105607;28;20035;-71
2024/03/24 06:24:48;;;;;;;7.70;1.55;;;6.10;99.90;;;5.33;100.00;101366.41;4105075;28;20027;-71
2024/03/24 06:26:48;;;;;;;12.30;1.70;;;6.10;99.90;;;5.36;100.00;101374.03;4105335;29;20086;-71
2024/03/24 06:28:49;;;;;;;9.20;1.67;;;6.10;99.90;;;5.37;100.00;101375.72;4105372;29;20034;-71
2024/03/24 06:30:52;;;;;;;9.95;1.77;;;6.10;99.90;;;5.41;100.00;101374.53;4104033;29;20058;-71
2024/03/24 06:32:53;;;;;;;12.65;1.77;;;6.10;99.90;;;5.48;100.00;101380.19;4105246;28;20031;-71
2024/03/24 06:34:54;;;;;;;10.63;1.75;;;6.20;99.90;;;5.48;100.00;101373.19;4105280;29;20031;-71
2024/03/24 06:36:55;;;;;;;10.18;2.03;;;6.30;99.90;;;5.53;100.00;101376.28;4119786;28;20031;-71
2024/03/24 06:38:56;;;;;;;8.10;1.90;;;6.30;99.90;;;5.59;100.00;101375.03;4103806;29;20058;-71
2024/03/24 06:40:57;;;;;;;10.80;2.15;;;6.30;99.90;;;5.64;100.00;101379.94;4104137;29;20081;-70
2024/03/24 06:43:02;;;;;;;8.15;2.45;;;6.40;99.90;;;5.65;100.00;101376.38;4105171;29;20036;-70
2024/03/24 06:45:08;;;;;;;7.07;2.10;;;6.40;99.90;;;5.71;100.00;101383.78;4103966;29;20026;-71
2024/03/24 06:47:09;;;;;;;14.38;1.80;;;6.40;99.90;;;5.74;100.00;101383.56;4107459;28;20038;-71
2024/03/24 06:49:09;;;;;;;7.38;2.25;;;6.40;99.90;;;5.73;100.00;101381.91;4104822;28;20038;-71
2024/03/24 06:51:10;;;;;;;7.85;1.67;;;6.40;99.90;;;5.70;100.00;101380.34;4105060;29;20033;-71
2024/03/24 06:53:13;;;;;;;8.52;1.88;;;6.50;99.90;;;5.69;100.00;101377.81;4119668;28;20054;-71
2024/03/24 06:55:14;;;;;;;10.63;2.63;;;6.40;99.90;;;5.64;100.00;101383.41;4104830;28;20027;-71
2024/03/24 06:57:15;;;;;;;8.05;2.22;;;6.40;99.90;;;5.68;100.00;101378.75;4105220;29;20063;-71
2024/03/24 06:59:16;;;;;;;7.82;2.13;;;6.40;99.90;;;5.69;100.00;101377.81;4104978;29;20432;-71
2024/03/24 07:01:18;;;;;;;11.60;3.38;;;6.40;99.90;;;5.70;100.00;101371.66;4103702;29;20035;-71
2024/03/24 07:03:20;;;;;;;12.57;2.30;;;6.50;99.90;;;5.73;100.00;101376.69;4103825;29;20055;-71
2024/03/24 07:05:21;;;;;;;7.68;2.08;;;6.40;99.90;;;5.76;100.00;101387.78;4103435;29;20043;-71
2024/03/24 07:07:22;;;;;;;15.20;2.97;;;6.50;99.90;;;5.81;100.00;101390.03;4103751;29;20031;-71
2024/03/24 07:09:25;;;;;;;10.00;1.70;;;6.50;99.90;;;5.85;100.00;101378.41;4104802;29;20034;-71
2024/03/24 07:11:26;;;;;;;7.80;2.33;;;6.60;99.90;;;5.93;100.00;101389.19;4103577;28;20042;-71
2024/03/24 07:13:26;;;;;;;9.10;1.92;;;6.60;99.90;;;5.96;100.00;101378.50;4103839;28;20019;-71
2024/03/24 07:15:27;;;;;;;7.75;2.72;;;6.70;99.90;;;6.03;100.00;101382.38;4119441;28;20438;-71
2024/03/24 07:17:28;;;;;;;9.27;1.83;;;6.70;99.90;;;6.06;100.00;101385.56;4103413;29;20027;-71
2024/03/24 07:19:29;;;;;;;11.05;2.53;;;6.70;99.90;;;6.06;100.00;101385.56;4104677;28;20035;-70
2024/03/24 07:21:30;;;;;;;10.27;1.80;;;6.80;99.90;;;6.13;100.00;101389.44;4104473;28;20102;-71
2024/03/24 07:23:31;;;;;;;8.77;2.25;;;6.80;99.90;;;6.14;100.00;101385.03;4104570;29;20023;-71
2024/03/24 07:25:32;;;;;;;9.20;1.77;;;6.90;99.90;;;6.17;100.00;101387.41;4103231;29;20039;-71
2024/03/24 07:27:33;;;;;;;8.98;1.90;;;6.90;99.90;;;6.18;100.00;101389.09;4092047;29;20035;-71
2024/03/24 07:29:34;;;;;;;10.40;1.80;;;6.80;99.90;;;6.17;100.00;101395.28;4103405;29;20023;-71
2024/03/24 07:31:34;;;;;;;11.05;2.20;;;6.90;99.90;;;6.13;100.00;101392.03;4104619;28;20431;-70
2024/03/24 07:33:35;;;;;;;11.80;2.45;;;6.80;99.90;;;6.10;100.00;101394.03;4104255;29;20047;-71
2024/03/24 07:35:36;;;;;;;7.55;1.75;;;6.80;99.90;;;5.99;100.00;101394.00;4104089;29;20454;-71
2024/03/24 07:37:37;;;;;;;10.25;2.60;;;6.80;99.90;;;6.00;100.00;101396.47;4104254;29;20134;-71
2024/03/24 07:39:38;;;;;;;6.75;1.77;;;6.70;99.90;;;6.01;100.00;101405.19;4104410;29;20028;-71
2024/03/24 07:41:39;;;;;;;10.35;2.53;;;6.70;99.90;;;6.01;100.00;101392.94;4104348;29;20027;-71
2024/03/24 07:43:40;;;;;;;8.02;1.65;;;6.80;99.90;;;6.09;100.00;101405.50;4104332;29;20031;-71
2024/03/24 07:45:41;;;;;;;9.70;2.20;;;6.80;99.90;;;6.15;100.00;101409.44;4104228;29;20027;-71
2024/03/24 07:47:42;;;;;;;10.07;2.05;;;6.80;99.90;;;6.15;100.00;101399.81;4103030;29;20031;-71
2024/03/24 07:49:43;;;;;;;9.90;1.63;;;6.90;99.90;;;6.24;100.00;101409.63;4104407;28;20027;-71
2024/03/24 07:51:43;;;;;;;11.50;2.45;;;7.00;99.90;;;6.29;100.00;101407.50;4102840;29;20039;-71
2024/03/24 07:53:44;;;;;;;15.27;3.45;;;7.00;99.90;;;6.39;100.00;101411.09;4104298;28;20123;-71
2024/03/24 07:55:45;;;;;;;8.48;1.52;;;7.10;99.90;;;6.41;100.00;101405.75;4104321;29;20038;-71
2024/03/24 07:57:46;;;;;;;9.18;1.67;;;7.10;99.90;;;6.49;100.00;101411.25;4102972;29;20075;-71
2024/03/24 07:59:47;;;;;;;12.50;2.92;;;7.20;99.90;;;6.54;100.00;101407.34;4102913;29;20031;-71
2024/03/24 08:01:48;;;;;;;4.85;1.48;;;7.30;99.90;;;6.61;100.00;101416.41;4104214;28;20032;-71
2024/03/24 08:03:49;;;;;;;11.98;2.22;;;7.30;99.90;;;6.66;100.00;101416.91;4104188;28;20035;-71
2024/03/24 08:05:53;;;;;;;7.95;2.00;;;7.40;99.90;;;6.73;100.00;101413.81;4102613;28;20086;-71
2024/03/24 08:07:54;;;;;;;8.20;1.95;;;7.40;99.90;;;6.79;100.00;101410.75;4103993;28;20035;-71
2024/03/24 08:09:54;;;;;;;12.88;2.38;;;7.50;99.90;;;6.91;100.00;101420.31;4104121;29;20038;-71
2024/03/24 08:11:55;;;;;;;14.48;1.88;;;7.60;99.90;;;7.00;100.00;101409.97;4104098;29;20039;-71
2024/03/24 08:13:56;;;;;;;9.95;2.15;;;7.70;99.90;;;7.05;100.00;101414.84;4103857;29;20031;-71
2024/03/24 08:15:57;;;;;;;6.85;2.20;;;7.70;99.90;;;7.13;100.00;101415.13;4102547;29;20524;-71
2024/03/24 08:17:58;;;;;;;10.60;2.75;;;7.80;99.90;;;7.24;100.00;101423.00;4103732;28;20039;-71
2024/03/24 08:19:59;;;;;;;9.68;2.30;;;7.90;99.90;;;7.26;100.00;101412.41;4103567;29;20027;-71
2024/03/24 08:21:59;;;;;;;14.32;2.40;;;7.90;99.90;;;7.41;100.00;101409.41;4102525;28;20027;-71
2024/03/24 08:24:00;;;;;;;10.60;2.20;;;8.00;99.90;;;7.44;100.00;101414.41;4103791;28;20051;-71
2024/03/24 08:26:02;;;;;;;11.75;2.60;;;8.10;99.90;;;7.46;100.00;101415.16;4105266;28;20030;-71
2024/03/24 08:28:03;;;;;;;9.68;2.00;;;8.20;99.90;;;7.51;100.00;101420.84;4106272;29;20400;-71